sensor_id;sensor_type;location;lat;lon;timestamp;pressure;altitude;pressure_sealevel;temperature;humidity
46448;BME280;32145;50.390;30.778;2024-02-16T00:02:32;101104.44;;;2.40;88.85
46448;BME280;32145;50.390;30.778;2024-02-16T00:05:26;101106.13;;;2.41;88.63
46448;BME280;32145;50.390;30.778;2024-02-16T00:08:20;101100.78;;;2.41;88.76
46448;BME280;32145;50.390;30.778;2024-02-16T00:11:15;101100.78;;;2.41;88.63
46448;BME280;32145;50.390;30.778;2024-02-16T00:14:11;101093.75;;;2.40;88.82
46448;BME280;32145;50.390;30.778;2024-02-16T00:17:07;101094.75;;;2.39;88.81
46448;BME280;32145;50.390;30.778;2024-02-16T00:20:06;101087.38;;;2.41;89.10
46448;BME280;32145;50.390;30.778;2024-02-16T00:23:03;101090.06;;;2.41;88.84
46448;BME280;32145;50.390;30.778;2024-02-16T00:26:01;101095.41;;;2.41;89.07
46448;BME280;32145;50.390;30.778;2024-02-16T00:28:57;101091.75;;;2.42;89.20
46448;BME280;32145;50.390;30.778;2024-02-16T00:31:51;101097.09;;;2.42;88.89
46448;BME280;32145;50.390;30.778;2024-02-16T00:34:45;101100.78;;;2.41;88.96
46448;BME280;32145;50.390;30.778;2024-02-16T00:37:41;101101.63;;;2.42;88.96
46448;BME280;32145;50.390;30.778;2024-02-16T00:40:36;101104.44;;;2.40;89.07
46448;BME280;32145;50.390;30.778;2024-02-16T00:43:30;101100.09;;;2.39;89.17
46448;BME280;32145;50.390;30.778;2024-02-16T00:46:24;101103.44;;;2.41;88.93
46448;BME280;32145;50.390;30.778;2024-02-16T00:49:19;101106.97;;;2.42;88.86
46448;BME280;32145;50.390;30.778;2024-02-16T00:52:13;101106.97;;;2.42;89.30
46448;BME280;32145;50.390;30.778;2024-02-16T00:55:09;101099.09;;;2.40;89.14
46448;BME280;32145;50.390;30.778;2024-02-16T00:58:05;101090.06;;;2.41;89.04
46448;BME280;32145;50.390;30.778;2024-02-16T01:01:01;101095.41;;;2.41;88.75
46448;BME280;32145;50.390;30.778;2024-02-16T01:03:57;101086.72;;;2.39;89.01
46448;BME280;32145;50.390;30.778;2024-02-16T01:06:52;101098.25;;;2.40;89.45
46448;BME280;32145;50.390;30.778;2024-02-16T01:09:46;101084.84;;;2.40;88.97
46448;BME280;32145;50.390;30.778;2024-02-16T01:12:42;101082.19;;;2.40;89.39
46448;BME280;32145;50.390;30.778;2024-02-16T01:15:36;101091.22;;;2.39;89.18
46448;BME280;32145;50.390;30.778;2024-02-16T01:18:31;101092.06;;;2.39;88.99
46448;BME280;32145;50.390;30.778;2024-02-16T01:21:25;101090.06;;;2.41;89.26
46448;BME280;32145;50.390;30.778;2024-02-16T01:24:19;101092.75;;;2.41;89.53
46448;BME280;32145;50.390;30.778;2024-02-16T01:27:13;101089.25;;;2.41;88.87
46448;BME280;32145;50.390;30.778;2024-02-16T01:30:10;101097.09;;;2.42;89.25
46448;BME280;32145;50.390;30.778;2024-02-16T01:33:05;101098.09;;;2.41;89.52
46448;BME280;32145;50.390;30.778;2024-02-16T01:35:59;101092.59;;;2.43;89.50
46448;BME280;32145;50.390;30.778;2024-02-16T01:38:53;101091.59;;;2.44;89.51
46448;BME280;32145;50.390;30.778;2024-02-16T01:41:48;101093.44;;;2.43;89.53
46448;BME280;32145;50.390;30.778;2024-02-16T01:44:42;101092.44;;;2.44;89.48
46448;BME280;32145;50.390;30.778;2024-02-16T01:47:38;101092.44;;;2.44;88.96
46448;BME280;32145;50.390;30.778;2024-02-16T01:50:34;101088.09;;;2.43;88.98
46448;BME280;32145;50.390;30.778;2024-02-16T01:53:31;101092.44;;;2.44;89.46
46448;BME280;32145;50.390;30.778;2024-02-16T01:56:28;101087.25;;;2.43;89.24
46448;BME280;32145;50.390;30.778;2024-02-16T01:59:25;101084.28;;;2.46;89.54
46448;BME280;32145;50.390;30.778;2024-02-16T02:02:22;101088.63;;;2.47;89.29
46448;BME280;32145;50.390;30.778;2024-02-16T02:05:19;101092.16;;;2.48;89.53
46448;BME280;32145;50.390;30.778;2024-02-16T02:08:14;101087.81;;;2.47;89.32
46448;BME280;32145;50.390;30.778;2024-02-16T02:11:08;101088.78;;;2.45;89.30
46448;BME280;32145;50.390;30.778;2024-02-16T02:14:04;101096.50;;;2.49;89.43
46448;BME280;32145;50.390;30.778;2024-02-16T02:17:00;101101.88;;;2.49;89.02
46448;BME280;32145;50.390;30.778;2024-02-16T02:19:57;101094.84;;;2.48;89.28
46448;BME280;32145;50.390;30.778;2024-02-16T02:22:54;101101.88;;;2.49;89.00
46448;BME280;32145;50.390;30.778;2024-02-16T02:25:51;101100.19;;;2.48;89.47
46448;BME280;32145;50.390;30.778;2024-02-16T02:28:47;101096.50;;;2.49;89.51
46448;BME280;32145;50.390;30.778;2024-02-16T02:31:44;101103.53;;;2.50;89.41
46448;BME280;32145;50.390;30.778;2024-02-16T02:34:40;101108.06;;;2.49;89.08
46448;BME280;32145;50.390;30.778;2024-02-16T02:37:36;101108.06;;;2.49;89.40
46448;BME280;32145;50.390;30.778;2024-02-16T02:40:34;101106.38;;;2.48;89.45
46448;BME280;32145;50.390;30.778;2024-02-16T02:43:31;101110.91;;;2.48;89.03
46448;BME280;32145;50.390;30.778;2024-02-16T02:46:27;101108.91;;;2.50;89.12
46448;BME280;32145;50.390;30.778;2024-02-16T02:49:24;101109.91;;;2.49;89.35
46448;BME280;32145;50.390;30.778;2024-02-16T02:52:21;101116.25;;;2.48;89.02
46448;BME280;32145;50.390;30.778;2024-02-16T02:55:17;101117.25;;;2.47;89.34
46448;BME280;32145;50.390;30.778;2024-02-16T02:58:15;101119.91;;;2.47;89.10
46448;BME280;32145;50.390;30.778;2024-02-16T03:01:12;101120.22;;;2.43;89.09
46448;BME280;32145;50.390;30.778;2024-02-16T03:04:08;101128.25;;;2.43;89.35
46448;BME280;32145;50.390;30.778;2024-02-16T03:07:02;101125.84;;;2.40;88.96
46448;BME280;32145;50.390;30.778;2024-02-16T03:09:56;101134.88;;;2.39;89.00
46448;BME280;32145;50.390;30.778;2024-02-16T03:12:53;101135.03;;;2.38;88.67
46448;BME280;32145;50.390;30.778;2024-02-16T03:15:50;101136.84;;;2.37;89.06
46448;BME280;32145;50.390;30.778;2024-02-16T03:18:47;101131.50;;;2.37;89.03
46448;BME280;32145;50.390;30.778;2024-02-16T03:21:43;101134.03;;;2.39;88.88
46448;BME280;32145;50.390;30.778;2024-02-16T03:24:39;101139.25;;;2.40;89.21
46448;BME280;32145;50.390;30.778;2024-02-16T03:27:36;101137.41;;;2.41;88.98
46448;BME280;32145;50.390;30.778;2024-02-16T03:30:32;101140.91;;;2.41;88.73
46448;BME280;32145;50.390;30.778;2024-02-16T03:33:30;101138.09;;;2.43;88.74
46448;BME280;32145;50.390;30.778;2024-02-16T03:36:26;101136.56;;;2.40;88.92
46448;BME280;32145;50.390;30.778;2024-02-16T03:39:23;101135.03;;;2.38;88.89
46448;BME280;32145;50.390;30.778;2024-02-16T03:42:19;101136.03;;;2.37;88.77
46448;BME280;32145;50.390;30.778;2024-02-16T03:45:13;101137.84;;;2.36;88.85
46448;BME280;32145;50.390;30.778;2024-02-16T03:48:08;101138.84;;;2.35;88.85
46448;BME280;32145;50.390;30.778;2024-02-16T03:51:04;101132.66;;;2.35;88.77
46448;BME280;32145;50.390;30.778;2024-02-16T03:53:58;101136.31;;;2.34;88.62
46448;BME280;32145;50.390;30.778;2024-02-16T03:56:53;101141.66;;;2.34;88.38
46448;BME280;32145;50.390;30.778;2024-02-16T03:59:48;101142.50;;;2.34;88.52
46448;BME280;32145;50.390;30.778;2024-02-16T04:02:42;101144.50;;;2.32;88.51
46448;BME280;32145;50.390;30.778;2024-02-16T04:05:38;101152.53;;;2.32;88.41
46448;BME280;32145;50.390;30.778;2024-02-16T04:08:34;101147.16;;;2.32;88.68
46448;BME280;32145;50.390;30.778;2024-02-16T04:11:28;101149.84;;;2.32;88.45
46448;BME280;32145;50.390;30.778;2024-02-16T04:14:22;101147.84;;;2.34;88.83
46448;BME280;32145;50.390;30.778;2024-02-16T04:17:19;101161.94;;;2.36;88.70
46448;BME280;32145;50.390;30.778;2024-02-16T04:20:16;101160.13;;;2.37;88.71
46448;BME280;32145;50.390;30.778;2024-02-16T04:23:12;101168.97;;;2.37;88.51
46448;BME280;32145;50.390;30.778;2024-02-16T04:26:04;101168.97;;;2.37;88.67
46448;BME280;32145;50.390;30.778;2024-02-16T04:29:00;101168.16;;;2.37;88.59
46448;BME280;32145;50.390;30.778;2024-02-16T04:31:50;101173.66;;;2.35;89.01
46448;BME280;32145;50.390;30.778;2024-02-16T04:34:39;101173.78;;;2.34;88.35
46448;BME280;32145;50.390;30.778;2024-02-16T04:37:35;101176.59;;;2.32;88.85
46448;BME280;32145;50.390;30.778;2024-02-16T04:40:25;101177.28;;;2.34;88.87
46448;BME280;32145;50.390;30.778;2024-02-16T04:43:23;101170.97;;;2.35;88.59
46448;BME280;32145;50.390;30.778;2024-02-16T04:46:14;101169.25;;;2.34;88.95
46448;BME280;32145;50.390;30.778;2024-02-16T04:49:09;101171.94;;;2.34;88.56
46448;BME280;32145;50.390;30.778;2024-02-16T04:52:06;101164.91;;;2.33;88.53
46448;BME280;32145;50.390;30.778;2024-02-16T04:55:00;101174.63;;;2.34;88.88
46448;BME280;32145;50.390;30.778;2024-02-16T04:57:54;101179.16;;;2.34;88.61
46448;BME280;32145;50.390;30.778;2024-02-16T05:00:50;101179.97;;;2.34;88.76
46448;BME280;32145;50.390;30.778;2024-02-16T05:03:46;101181.81;;;2.34;88.95
46448;BME280;32145;50.390;30.778;2024-02-16T05:06:43;101186.16;;;2.35;88.62
46448;BME280;32145;50.390;30.778;2024-02-16T05:09:39;101181.81;;;2.34;88.54
46448;BME280;32145;50.390;30.778;2024-02-16T05:12:33;101194.34;;;2.33;88.53
46448;BME280;32145;50.390;30.778;2024-02-16T05:15:30;101198.03;;;2.32;88.44
46448;BME280;32145;50.390;30.778;2024-02-16T05:18:26;101191.00;;;2.31;88.63
46448;BME280;32145;50.390;30.778;2024-02-16T05:21:20;101199.16;;;2.29;88.41
46448;BME280;32145;50.390;30.778;2024-02-16T05:24:14;101201.13;;;2.27;88.39
46448;BME280;32145;50.390;30.778;2024-02-16T05:27:09;101207.19;;;2.29;88.68
46448;BME280;32145;50.390;30.778;2024-02-16T05:30:04;101206.19;;;2.30;88.65
46448;BME280;32145;50.390;30.778;2024-02-16T05:33:02;101198.03;;;2.32;88.45
46448;BME280;32145;50.390;30.778;2024-02-16T05:35:57;101210.69;;;2.30;88.45
46448;BME280;32145;50.390;30.778;2024-02-16T05:38:52;101210.69;;;2.30;88.19
46448;BME280;32145;50.390;30.778;2024-02-16T05:41:46;101203.66;;;2.29;88.04
46448;BME280;32145;50.390;30.778;2024-02-16T05:44:40;101209.72;;;2.31;88.52
46448;BME280;32145;50.390;30.778;2024-02-16T05:47:35;101210.25;;;2.35;88.59
46448;BME280;32145;50.390;30.778;2024-02-16T05:50:29;101210.13;;;2.36;88.34
46448;BME280;32145;50.390;30.778;2024-02-16T05:53:25;101216.16;;;2.38;88.40
46448;BME280;32145;50.390;30.778;2024-02-16T05:56:19;101212.50;;;2.39;88.76
46448;BME280;32145;50.390;30.778;2024-02-16T05:59:14;101213.47;;;2.38;88.68
46448;BME280;32145;50.390;30.778;2024-02-16T06:02:08;101219.00;;;2.37;88.34
46448;BME280;32145;50.390;30.778;2024-02-16T06:05:05;101219.69;;;2.39;88.51
46448;BME280;32145;50.390;30.778;2024-02-16T06:08:02;101220.22;;;2.42;88.57
46448;BME280;32145;50.390;30.778;2024-02-16T06:10:59;101224.59;;;2.43;88.59
46448;BME280;32145;50.390;30.778;2024-02-16T06:13:56;101227.28;;;2.43;88.12
46448;BME280;32145;50.390;30.778;2024-02-16T06:16:52;101225.28;;;2.45;88.49
46448;BME280;32145;50.390;30.778;2024-02-16T06:19:49;101227.81;;;2.47;88.28
46448;BME280;32145;50.390;30.778;2024-02-16T06:22:45;101227.69;;;2.49;88.35
46448;BME280;32145;50.390;30.778;2024-02-16T06:25:41;101227.41;;;2.52;88.24
46448;BME280;32145;50.390;30.778;2024-02-16T06:28:39;101226.41;;;2.53;88.46
46448;BME280;32145;50.390;30.778;2024-02-16T06:31:35;101221.19;;;2.51;88.47
46448;BME280;32145;50.390;30.778;2024-02-16T06:34:32;101225.72;;;2.51;88.09
46448;BME280;32145;50.390;30.778;2024-02-16T06:37:28;101224.00;;;2.50;88.26
46448;BME280;32145;50.390;30.778;2024-02-16T06:40:24;101219.94;;;2.45;88.00
46448;BME280;32145;50.390;30.778;2024-02-16T06:43:20;101221.94;;;2.43;88.16
46448;BME280;32145;50.390;30.778;2024-02-16T06:46:16;101227.28;;;2.43;88.13
46448;BME280;32145;50.390;30.778;2024-02-16T06:49:11;101230.34;;;2.49;88.30
46448;BME280;32145;50.390;30.778;2024-02-16T06:52:05;101232.03;;;2.50;87.95
46448;BME280;32145;50.390;30.778;2024-02-16T06:55:00;101230.06;;;2.52;87.90
46448;BME280;32145;50.390;30.778;2024-02-16T06:57:54;101229.06;;;2.53;87.99
46448;BME280;32145;50.390;30.778;2024-02-16T07:00:48;101229.94;;;2.53;87.69
46448;BME280;32145;50.390;30.778;2024-02-16T07:03:44;101223.72;;;2.53;87.77
46448;BME280;32145;50.390;30.778;2024-02-16T07:06:38;101232.59;;;2.53;87.63
46448;BME280;32145;50.390;30.778;2024-02-16T07:09:35;101231.75;;;2.53;88.09
46448;BME280;32145;50.390;30.778;2024-02-16T07:12:31;101231.75;;;2.53;87.82
46448;BME280;32145;50.390;30.778;2024-02-16T07:15:26;101230.75;;;2.54;88.02
46448;BME280;32145;50.390;30.778;2024-02-16T07:18:20;101237.66;;;2.56;87.71
46448;BME280;32145;50.390;30.778;2024-02-16T07:21:15;101238.75;;;2.64;87.88
46448;BME280;32145;50.390;30.778;2024-02-16T07:24:10;101240.69;;;2.72;87.98
46448;BME280;32145;50.390;30.778;2024-02-16T07:27:04;101251.94;;;2.75;87.94
46448;BME280;32145;50.390;30.778;2024-02-16T07:29:58;101250.81;;;2.78;87.84
46448;BME280;32145;50.390;30.778;2024-02-16T07:32:53;101259.84;;;2.77;87.69
46448;BME280;32145;50.390;30.778;2024-02-16T07:35:47;101254.25;;;2.70;87.62
46448;BME280;32145;50.390;30.778;2024-02-16T07:38:43;101259.06;;;2.66;87.43
46448;BME280;32145;50.390;30.778;2024-02-16T07:41:37;101266.22;;;2.66;87.10
46448;BME280;32145;50.390;30.778;2024-02-16T07:44:31;101266.09;;;2.67;87.37
46448;BME280;32145;50.390;30.778;2024-02-16T07:47:26;101273.13;;;2.68;86.81
46448;BME280;32145;50.390;30.778;2024-02-16T07:50:21;101277.47;;;2.69;87.28
46448;BME280;32145;50.390;30.778;2024-02-16T07:53:16;101271.97;;;2.71;87.38
46448;BME280;32145;50.390;30.778;2024-02-16T07:56:11;101270.16;;;2.72;87.35
46448;BME280;32145;50.390;30.778;2024-02-16T07:59:05;101278.06;;;2.73;87.39
46448;BME280;32145;50.390;30.778;2024-02-16T08:02:00;101280.16;;;2.69;86.75
46448;BME280;32145;50.390;30.778;2024-02-16T08:04:50;101279.19;;;2.70;87.09
46448;BME280;32145;50.390;30.778;2024-02-16T08:07:38;101278.47;;;2.68;86.70
46448;BME280;32145;50.390;30.778;2024-02-16T08:10:28;101285.50;;;2.69;87.15
46448;BME280;32145;50.390;30.778;2024-02-16T08:13:24;101279.88;;;2.73;87.03
46448;BME280;32145;50.390;30.778;2024-02-16T08:16:19;101285.22;;;2.73;87.03
46448;BME280;32145;50.390;30.778;2024-02-16T08:19:13;101285.22;;;2.73;86.71
46448;BME280;32145;50.390;30.778;2024-02-16T08:22:08;101289.06;;;2.70;86.73
46448;BME280;32145;50.390;30.778;2024-02-16T08:25:02;101290.88;;;2.69;86.39
46448;BME280;32145;50.390;30.778;2024-02-16T08:27:57;101294.25;;;2.72;86.94
46448;BME280;32145;50.390;30.778;2024-02-16T08:30:52;101291.44;;;2.73;86.77
46448;BME280;32145;50.390;30.778;2024-02-16T08:33:46;101290.59;;;2.73;86.55
46448;BME280;32145;50.390;30.778;2024-02-16T08:36:43;101290.31;;;2.76;86.17
46448;BME280;32145;50.390;30.778;2024-02-16T08:39:38;101288.31;;;2.78;86.68
46448;BME280;32145;50.390;30.778;2024-02-16T08:42:32;101290.84;;;2.79;86.12
46448;BME280;32145;50.390;30.778;2024-02-16T08:45:27;101300.41;;;2.82;86.43
46448;BME280;32145;50.390;30.778;2024-02-16T08:48:24;101295.03;;;2.82;85.78
46448;BME280;32145;50.390;30.778;2024-02-16T08:51:18;101293.50;;;2.79;85.91
46448;BME280;32145;50.390;30.778;2024-02-16T08:54:12;101290.84;;;2.79;85.71
46448;BME280;32145;50.390;30.778;2024-02-16T08:57:07;101291.25;;;2.85;85.81
46448;BME280;32145;50.390;30.778;2024-02-16T09:00:01;101293.63;;;2.88;85.57
46448;BME280;32145;50.390;30.778;2024-02-16T09:02:55;101292.50;;;2.90;85.90
46448;BME280;32145;50.390;30.778;2024-02-16T09:05:51;101294.28;;;3.00;85.43
46448;BME280;32145;50.390;30.778;2024-02-16T09:08:45;101289.88;;;3.08;85.83
46448;BME280;32145;50.390;30.778;2024-02-16T09:11:40;101297.50;;;3.03;85.62
46448;BME280;32145;50.390;30.778;2024-02-16T09:14:34;101293.28;;;3.01;85.28
46448;BME280;32145;50.390;30.778;2024-02-16T09:17:29;101287.94;;;3.01;85.08
46448;BME280;32145;50.390;30.778;2024-02-16T09:20:23;101294.66;;;3.05;85.15
46448;BME280;32145;50.390;30.778;2024-02-16T09:23:19;101290.41;;;3.12;84.91
46448;BME280;32145;50.390;30.778;2024-02-16T09:26:13;101293.25;;;3.11;85.03
46448;BME280;32145;50.390;30.778;2024-02-16T09:29:07;101290.03;;;3.07;84.71
46448;BME280;32145;50.390;30.778;2024-02-16T09:32:04;101300.88;;;3.05;84.42
46448;BME280;32145;50.390;30.778;2024-02-16T09:35:01;101296.34;;;3.06;84.70
46448;BME280;32145;50.390;30.778;2024-02-16T09:37:57;101296.47;;;3.14;84.80
46448;BME280;32145;50.390;30.778;2024-02-16T09:40:55;101296.25;;;3.26;84.58
46448;BME280;32145;50.390;30.778;2024-02-16T09:43:52;101294.94;;;3.30;84.28
46448;BME280;32145;50.390;30.778;2024-02-16T09:46:48;101289.78;;;3.28;84.01
46448;BME280;32145;50.390;30.778;2024-02-16T09:49:44;101297.19;;;3.34;83.93
46448;BME280;32145;50.390;30.778;2024-02-16T09:52:40;101294.44;;;3.44;84.12
46448;BME280;32145;50.390;30.778;2024-02-16T09:55:37;101302.88;;;3.50;84.32
46448;BME280;32145;50.390;30.778;2024-02-16T09:58:36;101291.56;;;3.56;84.32
46448;BME280;32145;50.390;30.778;2024-02-16T10:01:32;101296.63;;;3.59;83.94
46448;BME280;32145;50.390;30.778;2024-02-16T10:04:26;101290.19;;;3.52;83.44
46448;BME280;32145;50.390;30.778;2024-02-16T10:07:30;101299.22;;;3.51;83.49
46448;BME280;32145;50.390;30.778;2024-02-16T10:10:28;101298.91;;;3.54;83.38
46448;BME280;32145;50.390;30.778;2024-02-16T10:13:24;101300.44;;;3.56;83.27
46448;BME280;32145;50.390;30.778;2024-02-16T10:16:22;101299.44;;;3.57;83.10
46448;BME280;32145;50.390;30.778;2024-02-16T10:19:19;101298.81;;;3.64;82.93
46448;BME280;32145;50.390;30.778;2024-02-16T10:22:16;101295.41;;;3.71;83.06
46448;BME280;32145;50.390;30.778;2024-02-16T10:25:13;101306.13;;;3.71;82.82
46448;BME280;32145;50.390;30.778;2024-02-16T10:28:09;101306.81;;;3.73;82.55
46448;BME280;32145;50.390;30.778;2024-02-16T10:31:04;101301.13;;;3.77;82.53
46448;BME280;32145;50.390;30.778;2024-02-16T10:34:01;101306.19;;;3.80;82.50
46448;BME280;32145;50.390;30.778;2024-02-16T10:36:57;101312.28;;;3.82;82.46
46448;BME280;32145;50.390;30.778;2024-02-16T10:39:54;101308.03;;;3.79;82.20
46448;BME280;32145;50.390;30.778;2024-02-16T10:42:49;101314.94;;;3.82;82.23
46448;BME280;32145;50.390;30.778;2024-02-16T10:45:43;101307.72;;;3.82;82.13
46448;BME280;32145;50.390;30.778;2024-02-16T10:48:38;101309.97;;;3.87;81.98
46448;BME280;32145;50.390;30.778;2024-02-16T10:51:36;101304.03;;;3.83;81.95
46448;BME280;32145;50.390;30.778;2024-02-16T10:54:33;101311.88;;;3.77;81.86
46448;BME280;32145;50.390;30.778;2024-02-16T10:57:29;101309.19;;;3.77;82.06
46448;BME280;32145;50.390;30.778;2024-02-16T11:00:23;101303.00;;;3.76;81.99
46448;BME280;32145;50.390;30.778;2024-02-16T11:03:21;101305.69;;;3.76;81.81
46448;BME280;32145;50.390;30.778;2024-02-16T11:06:16;101306.66;;;3.75;81.71
46448;BME280;32145;50.390;30.778;2024-02-16T11:09:23;101296.47;;;3.79;81.58
46448;BME280;32145;50.390;30.778;2024-02-16T11:12:17;101293.38;;;3.73;81.74
46448;BME280;32145;50.390;30.778;2024-02-16T11:15:11;101293.38;;;3.73;81.62
46448;BME280;32145;50.390;30.778;2024-02-16T11:18:10;101296.47;;;3.79;81.76
46448;BME280;32145;50.390;30.778;2024-02-16T11:21:05;101292.78;;;3.80;81.60
46448;BME280;32145;50.390;30.778;2024-02-16T11:24:06;101288.50;;;3.87;81.31
46448;BME280;32145;50.390;30.778;2024-02-16T11:27:03;101293.56;;;3.90;81.38
46448;BME280;32145;50.390;30.778;2024-02-16T11:30:00;101293.47;;;4.00;81.32
46448;BME280;32145;50.390;30.778;2024-02-16T11:32:57;101283.78;;;4.07;80.97
46448;BME280;32145;50.390;30.778;2024-02-16T11:35:54;101289.69;;;4.11;81.02
46448;BME280;32145;50.390;30.778;2024-02-16T11:38:51;101276.34;;;4.19;80.68
46448;BME280;32145;50.390;30.778;2024-02-16T11:41:47;101279.03;;;4.19;80.55
46448;BME280;32145;50.390;30.778;2024-02-16T11:44:52;101277.66;;;4.15;80.30
46448;BME280;32145;50.390;30.778;2024-02-16T11:47:47;101275.28;;;4.12;80.38
46448;BME280;32145;50.390;30.778;2024-02-16T11:50:41;101280.94;;;4.09;80.55
46448;BME280;32145;50.390;30.778;2024-02-16T11:53:37;101284.13;;;4.04;80.22
46448;BME280;32145;50.390;30.778;2024-02-16T11:56:34;101281.28;;;4.06;80.20
46448;BME280;32145;50.390;30.778;2024-02-16T11:59:28;101277.91;;;4.04;80.27
46448;BME280;32145;50.390;30.778;2024-02-16T12:02:24;101281.94;;;4.08;80.17
46448;BME280;32145;50.390;30.778;2024-02-16T12:05:19;101278.66;;;4.14;80.11
46448;BME280;32145;50.390;30.778;2024-02-16T12:08:13;101272.66;;;4.20;79.99
46448;BME280;32145;50.390;30.778;2024-02-16T12:11:07;101279.69;;;4.21;79.84
46448;BME280;32145;50.390;30.778;2024-02-16T12:14:04;101274.31;;;4.21;79.76
46448;BME280;32145;50.390;30.778;2024-02-16T12:16:58;101274.00;;;4.24;79.51
46448;BME280;32145;50.390;30.778;2024-02-16T12:19:54;101271.31;;;4.24;79.49
46448;BME280;32145;50.390;30.778;2024-02-16T12:22:48;101270.97;;;4.19;79.48
46448;BME280;32145;50.390;30.778;2024-02-16T12:25:43;101286.56;;;4.16;79.08
46448;BME280;32145;50.390;30.778;2024-02-16T12:28:37;101279.13;;;4.09;79.01
46448;BME280;32145;50.390;30.778;2024-02-16T12:31:32;101268.84;;;4.05;79.15
46448;BME280;32145;50.390;30.778;2024-02-16T12:34:28;101268.31;;;4.01;79.27
46448;BME280;32145;50.390;30.778;2024-02-16T12:37:25;101269.47;;;3.98;79.12
46448;BME280;32145;50.390;30.778;2024-02-16T12:40:20;101274.84;;;3.98;79.43
46448;BME280;32145;50.390;30.778;2024-02-16T12:43:14;101272.97;;;3.99;79.69
46448;BME280;32145;50.390;30.778;2024-02-16T12:46:08;101276.53;;;3.99;79.65
46448;BME280;32145;50.390;30.778;2024-02-16T12:49:03;101271.47;;;3.96;79.67
46448;BME280;32145;50.390;30.778;2024-02-16T12:51:57;101267.69;;;3.89;79.57
46448;BME280;32145;50.390;30.778;2024-02-16T12:54:53;101273.22;;;3.87;79.89
46448;BME280;32145;50.390;30.778;2024-02-16T12:57:50;101266.03;;;3.88;79.84
46448;BME280;32145;50.390;30.778;2024-02-16T13:00:46;101268.72;;;3.88;80.11
46448;BME280;32145;50.390;30.778;2024-02-16T13:03:42;101269.72;;;3.87;79.98
46448;BME280;32145;50.390;30.778;2024-02-16T13:06:39;101262.66;;;3.86;79.88
46448;BME280;32145;50.390;30.778;2024-02-16T13:09:35;101269.56;;;3.89;80.02
46448;BME280;32145;50.390;30.778;2024-02-16T13:12:33;101270.09;;;3.92;79.84
46448;BME280;32145;50.390;30.778;2024-02-16T13:15:29;101271.25;;;3.90;79.44
46448;BME280;32145;50.390;30.778;2024-02-16T13:18:26;101270.22;;;3.91;79.62
46448;BME280;32145;50.390;30.778;2024-02-16T13:21:22;101263.91;;;3.92;79.66
46448;BME280;32145;50.390;30.778;2024-02-16T13:24:18;101269.78;;;3.95;79.55
46448;BME280;32145;50.390;30.778;2024-02-16T13:27:14;101273.13;;;3.97;79.54
46448;BME280;32145;50.390;30.778;2024-02-16T13:30:13;101266.09;;;3.96;79.64
46448;BME280;32145;50.390;30.778;2024-02-16T13:33:09;101268.09;;;3.94;79.42
46448;BME280;32145;50.390;30.778;2024-02-16T13:36:24;101264.72;;;3.92;79.19
46448;BME280;32145;50.390;30.778;2024-02-16T13:39:20;101271.53;;;3.86;79.45
46448;BME280;32145;50.390;30.778;2024-02-16T13:42:17;101269.34;;;3.82;79.52
46448;BME280;32145;50.390;30.778;2024-02-16T13:45:15;101268.78;;;3.78;79.34
46448;BME280;32145;50.390;30.778;2024-02-16T13:48:11;101273.50;;;3.76;79.38
46448;BME280;32145;50.390;30.778;2024-02-16T13:51:08;101270.25;;;3.72;79.63
46448;BME280;32145;50.390;30.778;2024-02-16T13:54:04;101269.44;;;3.72;79.48
46448;BME280;32145;50.390;30.778;2024-02-16T13:57:00;101274.25;;;3.68;79.50
46448;BME280;32145;50.390;30.778;2024-02-16T13:59:56;101274.25;;;3.68;79.43
46448;BME280;32145;50.390;30.778;2024-02-16T14:02:54;101273.72;;;3.65;79.28
46448;BME280;32145;50.390;30.778;2024-02-16T14:05:51;101277.56;;;3.62;79.50
46448;BME280;32145;50.390;30.778;2024-02-16T14:08:47;101270.25;;;3.54;79.30
46448;BME280;32145;50.390;30.778;2024-02-16T14:11:45;101278.06;;;3.47;79.58
46448;BME280;32145;50.390;30.778;2024-02-16T14:14:41;101277.69;;;3.42;79.27
46448;BME280;32145;50.390;30.778;2024-02-16T14:17:38;101271.75;;;3.39;79.64
46448;BME280;32145;50.390;30.778;2024-02-16T14:20:35;101273.91;;;3.35;79.40
46448;BME280;32145;50.390;30.778;2024-02-16T14:23:31;101268.84;;;3.32;79.49
46448;BME280;32145;50.390;30.778;2024-02-16T14:26:28;101272.84;;;3.28;79.47
46448;BME280;32145;50.390;30.778;2024-02-16T14:29:24;101265.78;;;3.27;79.65
46448;BME280;32145;50.390;30.778;2024-02-16T14:32:20;101266.94;;;3.24;79.86
46448;BME280;32145;50.390;30.778;2024-02-16T14:35:14;101274.41;;;3.20;79.81
46448;BME280;32145;50.390;30.778;2024-02-16T14:38:11;101268.81;;;3.14;79.36
46448;BME280;32145;50.390;30.778;2024-02-16T14:41:05;101278.16;;;3.09;79.86
46448;BME280;32145;50.390;30.778;2024-02-16T14:43:59;101275.63;;;3.08;80.00
46448;BME280;32145;50.390;30.778;2024-02-16T14:46:55;101278.88;;;3.02;79.81
46448;BME280;32145;50.390;30.778;2024-02-16T14:49:52;101283.84;;;2.96;80.02
46448;BME280;32145;50.390;30.778;2024-02-16T14:52:48;101288.81;;;2.91;79.73
46448;BME280;32145;50.390;30.778;2024-02-16T14:55:46;101287.16;;;2.90;79.90
46448;BME280;32145;50.390;30.778;2024-02-16T14:58:40;101288.25;;;2.88;79.92
46448;BME280;32145;50.390;30.778;2024-02-16T15:01:35;101286.03;;;2.83;79.45
46448;BME280;32145;50.390;30.778;2024-02-16T15:04:29;101286.34;;;2.80;79.97
46448;BME280;32145;50.390;30.778;2024-02-16T15:07:23;101287.34;;;2.79;79.73
46448;BME280;32145;50.390;30.778;2024-02-16T15:10:18;101294.50;;;2.78;79.64
46448;BME280;32145;50.390;30.778;2024-02-16T15:13:14;101293.97;;;2.75;79.83
46448;BME280;32145;50.390;30.778;2024-02-16T15:16:08;101298.75;;;2.71;79.98
46448;BME280;32145;50.390;30.778;2024-02-16T15:19:02;101294.69;;;2.67;79.65